West Fort Ann, New York
Current Conditions -  °F | °C
As of 12:53 PM on Sunday 25 Jan 2015 (Local Time) from KGFL Reporting Station
Clear Clear  
Wind Chill: 12°   Ceiling: Unl
Heat Index: 25°   Visibility: 10mi
Dew Point:   Wind: 16mph
Humidity: 43%   Direction: 10°N
Pressure: 29.75"   Gusts: NA
Location:  43.4639°N, 73.5204°W
Report Text: KGFL 251753Z AUTO 01014KT 10SM CLR M04/M15 A2975 RMK AO2 SLP084 60000 T10391150 10011 21044 51014
Loading
Personal Weather Stations






























Interactive Weather Map New forecast layout! Learn more

10-Day Weather Forecast

Advertisements
Track Severe Weather on mobile